sensor_id;sensor_type;location;lat;lon;timestamp;pressure;altitude;pressure_sealevel;temperature;humidity
68712;BME280;55690;51.566;19.198;2022-10-30T00:03:33;102113.30;;;14.10;100.00
68712;BME280;55690;51.566;19.198;2022-10-30T00:07:40;102107.06;;;14.08;100.00
68712;BME280;55690;51.566;19.198;2022-10-30T00:11:46;102114.17;;;14.11;100.00
68712;BME280;55690;51.566;19.198;2022-10-30T00:15:52;102118.09;;;14.07;100.00
68712;BME280;55690;51.566;19.198;2022-10-30T00:20:00;102113.70;;;14.04;100.00
68712;BME280;55690;51.566;19.198;2022-10-30T00:24:06;102110.30;;;14.01;100.00
68712;BME280;55690;51.566;19.198;2022-10-30T00:28:11;102097.92;;;13.95;100.00
68712;BME280;55690;51.566;19.198;2022-10-30T00:32:17;102102.41;;;13.96;100.00
68712;BME280;55690;51.566;19.198;2022-10-30T00:36:23;102112.05;;;14.02;100.00
68712;BME280;55690;51.566;19.198;2022-10-30T00:40:29;102108.44;;;14.01;100.00
68712;BME280;55690;51.566;19.198;2022-10-30T00:44:47;102099.38;;;14.01;100.00
68712;BME280;55690;51.566;19.198;2022-10-30T00:53:10;102115.36;;;14.07;100.00
68712;BME280;55690;51.566;19.198;2022-10-30T00:57:14;102120.91;;;14.05;100.00
68712;BME280;55690;51.566;19.198;2022-10-30T01:01:21;102109.89;;;14.07;100.00
68712;BME280;55690;51.566;19.198;2022-10-30T01:05:26;102119.73;;;14.09;100.00
68712;BME280;55690;51.566;19.198;2022-10-30T01:09:29;102119.54;;;14.12;100.00
68712;BME280;55690;51.566;19.198;2022-10-30T01:13:32;102113.60;;;14.06;100.00
68712;BME280;55690;51.566;19.198;2022-10-30T01:17:47;102104.84;;;14.01;100.00
68712;BME280;55690;51.566;19.198;2022-10-30T01:22:06;102107.27;;;14.05;100.00
68712;BME280;55690;51.566;19.198;2022-10-30T01:38:58;102117.00;;;14.09;100.00
68712;BME280;55690;51.566;19.198;2022-10-30T01:43:02;102124.80;;;14.15;100.00
68712;BME280;55690;51.566;19.198;2022-10-30T01:47:19;102127.42;;;14.17;100.00
68712;BME280;55690;51.566;19.198;2022-10-30T01:59:58;102105.20;;;14.09;100.00
68712;BME280;55690;51.566;19.198;2022-10-30T02:04:01;102105.00;;;14.12;100.00
68712;BME280;55690;51.566;19.198;2022-10-30T02:08:04;102104.33;;;14.08;100.00
68712;BME280;55690;51.566;19.198;2022-10-30T02:12:06;102104.43;;;14.07;100.00
68712;BME280;55690;51.566;19.198;2022-10-30T02:16:09;102102.38;;;14.10;100.00
68712;BME280;55690;51.566;19.198;2022-10-30T02:20:20;102107.36;;;14.04;100.00
68712;BME280;55690;51.566;19.198;2022-10-30T02:24:22;102104.53;;;14.05;100.00
68712;BME280;55690;51.566;19.198;2022-10-30T02:28:23;102103.20;;;13.98;100.00
68712;BME280;55690;51.566;19.198;2022-10-30T02:32:25;102095.97;;;13.97;100.00
68712;BME280;55690;51.566;19.198;2022-10-30T02:36:32;102103.87;;;14.02;100.00
68712;BME280;55690;51.566;19.198;2022-10-30T02:40:34;102093.44;;;13.94;100.00
68712;BME280;55690;51.566;19.198;2022-10-30T02:44:36;102081.53;;;13.95;100.00
68712;BME280;55690;51.566;19.198;2022-10-30T02:48:38;102086.23;;;13.93;100.00
68712;BME280;55690;51.566;19.198;2022-10-30T02:52:39;102085.05;;;13.97;100.00
68712;BME280;55690;51.566;19.198;2022-10-30T02:56:41;102075.17;;;13.82;100.00
68712;BME280;55690;51.566;19.198;2022-10-30T03:00:42;102075.17;;;13.82;100.00
68712;BME280;55690;51.566;19.198;2022-10-30T03:04:50;102075.07;;;13.83;100.00
68712;BME280;55690;51.566;19.198;2022-10-30T03:08:52;102088.49;;;13.86;100.00
68712;BME280;55690;51.566;19.198;2022-10-30T03:12:53;102085.51;;;13.77;100.00
68712;BME280;55690;51.566;19.198;2022-10-30T03:16:56;102074.91;;;13.58;100.00
68712;BME280;55690;51.566;19.198;2022-10-30T03:21:02;102079.31;;;13.46;100.00
68712;BME280;55690;51.566;19.198;2022-10-30T03:25:05;102092.47;;;13.54;100.00
68712;BME280;55690;51.566;19.198;2022-10-30T03:29:06;102083.79;;;13.61;100.00
68712;BME280;55690;51.566;19.198;2022-10-30T03:33:09;102087.05;;;13.40;100.00
68712;BME280;55690;51.566;19.198;2022-10-30T03:37:10;102082.07;;;13.32;100.00
68712;BME280;55690;51.566;19.198;2022-10-30T03:41:12;102082.17;;;13.30;100.00
68712;BME280;55690;51.566;19.198;2022-10-30T03:45:23;102066.84;;;13.14;100.00
68712;BME280;55690;51.566;19.198;2022-10-30T03:49:25;102103.80;;;13.19;100.00
68712;BME280;55690;51.566;19.198;2022-10-30T03:53:27;102112.57;;;13.24;100.00
68712;BME280;55690;51.566;19.198;2022-10-30T03:57:36;102114.81;;;13.18;100.00
68712;BME280;55690;51.566;19.198;2022-10-30T04:05:41;102133.32;;;13.27;100.00
68712;BME280;55690;51.566;19.198;2022-10-30T04:09:49;102161.39;;;13.29;100.00
68712;BME280;55690;51.566;19.198;2022-10-30T04:13:57;102149.88;;;13.24;100.00
68712;BME280;55690;51.566;19.198;2022-10-30T04:17:59;102136.34;;;13.22;100.00
68712;BME280;55690;51.566;19.198;2022-10-30T04:22:05;102115.78;;;13.31;100.00
68712;BME280;55690;51.566;19.198;2022-10-30T04:26:11;102123.48;;;13.24;100.00
68712;BME280;55690;51.566;19.198;2022-10-30T04:30:18;102103.51;;;13.24;100.00
68712;BME280;55690;51.566;19.198;2022-10-30T04:38:38;102101.85;;;13.21;100.00
68712;BME280;55690;51.566;19.198;2022-10-30T04:42:46;102111.30;;;13.16;100.00
68712;BME280;55690;51.566;19.198;2022-10-30T04:46:48;102105.84;;;13.16;100.00
68712;BME280;55690;51.566;19.198;2022-10-30T04:50:50;102123.14;;;13.15;100.00
68712;BME280;55690;51.566;19.198;2022-10-30T04:59:01;102125.20;;;12.97;100.00
68712;BME280;55690;51.566;19.198;2022-10-30T05:03:07;102100.06;;;12.92;100.00
68712;BME280;55690;51.566;19.198;2022-10-30T05:07:14;102079.01;;;12.80;100.00
68712;BME280;55690;51.566;19.198;2022-10-30T05:11:22;102070.61;;;12.69;100.00
68712;BME280;55690;51.566;19.198;2022-10-30T05:19:35;102090.66;;;12.68;100.00
68712;BME280;55690;51.566;19.198;2022-10-30T05:27:47;102089.78;;;12.67;100.00
68712;BME280;55690;51.566;19.198;2022-10-30T05:31:55;102089.59;;;12.70;100.00
68712;BME280;55690;51.566;19.198;2022-10-30T05:40:02;102099.70;;;12.68;100.00
68712;BME280;55690;51.566;19.198;2022-10-30T05:48:14;102075.27;;;12.52;100.00
68712;BME280;55690;51.566;19.198;2022-10-30T05:52:21;102073.79;;;12.47;100.00
68712;BME280;55690;51.566;19.198;2022-10-30T06:04:47;102096.01;;;12.55;100.00
68712;BME280;55690;51.566;19.198;2022-10-30T06:13:00;102104.93;;;12.57;100.00
68712;BME280;55690;51.566;19.198;2022-10-30T06:17:02;102106.69;;;12.58;100.00
68712;BME280;55690;51.566;19.198;2022-10-30T06:21:10;102117.22;;;12.64;100.00
68712;BME280;55690;51.566;19.198;2022-10-30T06:25:12;102112.45;;;12.53;100.00
68712;BME280;55690;51.566;19.198;2022-10-30T06:29:20;102117.30;;;12.62;100.00
68712;BME280;55690;51.566;19.198;2022-10-30T06:33:22;102119.16;;;12.62;100.00
68712;BME280;55690;51.566;19.198;2022-10-30T06:41:38;102132.88;;;12.60;100.00
68712;BME280;55690;51.566;19.198;2022-10-30T06:45:41;102126.55;;;12.60;100.00
68712;BME280;55690;51.566;19.198;2022-10-30T06:49:53;102131.21;;;12.58;100.00
68712;BME280;55690;51.566;19.198;2022-10-30T06:53:54;102129.52;;;12.41;100.00
68712;BME280;55690;51.566;19.198;2022-10-30T06:58:02;102132.97;;;12.59;100.00
68712;BME280;55690;51.566;19.198;2022-10-30T07:02:13;102141.09;;;12.75;100.00
68712;BME280;55690;51.566;19.198;2022-10-30T07:06:15;102130.14;;;12.90;100.00
68712;BME280;55690;51.566;19.198;2022-10-30T07:10:18;102134.15;;;12.99;100.00
68712;BME280;55690;51.566;19.198;2022-10-30T07:14:28;102137.63;;;12.87;100.00
68712;BME280;55690;51.566;19.198;2022-10-30T07:18:30;102149.73;;;12.97;100.00
68712;BME280;55690;51.566;19.198;2022-10-30T07:26:49;102154.40;;;13.09;100.00
68712;BME280;55690;51.566;19.198;2022-10-30T07:30:57;102157.68;;;13.30;100.00
68712;BME280;55690;51.566;19.198;2022-10-30T07:34:59;102152.99;;;13.46;100.00
68712;BME280;55690;51.566;19.198;2022-10-30T07:43:08;102148.90;;;13.53;100.00
68712;BME280;55690;51.566;19.198;2022-10-30T07:47:13;102152.41;;;13.70;100.00
68712;BME280;55690;51.566;19.198;2022-10-30T07:51:21;102145.77;;;13.74;100.00
68712;BME280;55690;51.566;19.198;2022-10-30T07:59:36;102140.78;;;14.21;100.00
68712;BME280;55690;51.566;19.198;2022-10-30T08:07:45;102134.57;;;14.32;100.00
68712;BME280;55690;51.566;19.198;2022-10-30T08:11:57;102130.06;;;14.45;100.00
68712;BME280;55690;51.566;19.198;2022-10-30T08:16:08;102117.73;;;14.25;100.00
68712;BME280;55690;51.566;19.198;2022-10-30T08:20:22;102122.14;;;14.41;100.00
68712;BME280;55690;51.566;19.198;2022-10-30T08:28:29;102140.50;;;14.39;100.00
68712;BME280;55690;51.566;19.198;2022-10-30T08:32:36;102128.67;;;14.52;100.00
68712;BME280;55690;51.566;19.198;2022-10-30T08:36:38;102127.52;;;14.69;100.00
68712;BME280;55690;51.566;19.198;2022-10-30T08:40:40;102124.22;;;14.64;100.00
68712;BME280;55690;51.566;19.198;2022-10-30T08:44:42;102124.32;;;14.75;100.00
68712;BME280;55690;51.566;19.198;2022-10-30T08:52:52;102141.11;;;14.96;100.00
68712;BME280;55690;51.566;19.198;2022-10-30T08:57:00;102137.29;;;14.98;100.00
68712;BME280;55690;51.566;19.198;2022-10-30T09:01:05;102152.23;;;14.80;100.00
68712;BME280;55690;51.566;19.198;2022-10-30T09:05:10;102155.31;;;14.88;100.00
68712;BME280;55690;51.566;19.198;2022-10-30T09:13:27;102157.94;;;14.90;100.00
68712;BME280;55690;51.566;19.198;2022-10-30T09:21:39;102143.29;;;15.29;100.00
68712;BME280;55690;51.566;19.198;2022-10-30T09:25:47;102142.54;;;15.40;100.00
68712;BME280;55690;51.566;19.198;2022-10-30T09:29:52;102138.05;;;15.51;100.00
68712;BME280;55690;51.566;19.198;2022-10-30T10:11:34;102133.52;;;16.84;100.00
68712;BME280;55690;51.566;19.198;2022-10-30T10:15:41;102133.81;;;16.68;100.00
68712;BME280;55690;51.566;19.198;2022-10-30T10:24:00;102142.38;;;16.99;100.00
68712;BME280;55690;51.566;19.198;2022-10-30T10:28:24;102144.02;;;17.01;100.00
68712;BME280;55690;51.566;19.198;2022-10-30T10:54:27;102103.50;;;17.38;100.00
68712;BME280;55690;51.566;19.198;2022-10-30T10:57:48;102099.02;;;17.48;100.00
68712;BME280;55690;51.566;19.198;2022-10-30T11:06:23;102103.75;;;17.35;100.00
68712;BME280;55690;51.566;19.198;2022-10-30T11:10:27;102101.90;;;17.24;100.00
68712;BME280;55690;51.566;19.198;2022-10-30T11:14:29;102096.16;;;17.27;100.00
68712;BME280;55690;51.566;19.198;2022-10-30T11:18:31;102091.78;;;17.47;100.00
68712;BME280;55690;51.566;19.198;2022-10-30T11:22:43;102087.29;;;17.46;100.00
68712;BME280;55690;51.566;19.198;2022-10-30T11:26:46;102083.54;;;17.58;100.00
68712;BME280;55690;51.566;19.198;2022-10-30T11:30:49;102078.06;;;17.70;100.00
68712;BME280;55690;51.566;19.198;2022-10-30T11:39:14;102091.55;;;17.73;100.00
68712;BME280;55690;51.566;19.198;2022-10-30T11:43:21;102090.26;;;17.88;100.00
68712;BME280;55690;51.566;19.198;2022-10-30T11:47:36;102077.02;;;17.82;100.00
68712;BME280;55690;51.566;19.198;2022-10-30T11:51:39;102068.89;;;17.91;100.00
68712;BME280;55690;51.566;19.198;2022-10-30T11:55:46;102077.52;;;17.87;100.00
68712;BME280;55690;51.566;19.198;2022-10-30T12:08:18;102058.10;;;18.11;100.00
68712;BME280;55690;51.566;19.198;2022-10-30T12:16:48;102052.89;;;17.97;100.00
68712;BME280;55690;51.566;19.198;2022-10-30T12:20:56;102050.14;;;17.97;100.00
68712;BME280;55690;51.566;19.198;2022-10-30T12:25:05;102049.63;;;18.03;100.00
68712;BME280;55690;51.566;19.198;2022-10-30T12:29:14;102051.79;;;17.88;100.00
68712;BME280;55690;51.566;19.198;2022-10-30T12:33:23;102045.28;;;17.89;100.00
68712;BME280;55690;51.566;19.198;2022-10-30T12:58:50;102036.04;;;17.90;100.00
68712;BME280;55690;51.566;19.198;2022-10-30T13:03:09;102032.80;;;17.85;100.00
68712;BME280;55690;51.566;19.198;2022-10-30T13:11:34;102026.66;;;17.92;100.00
68712;BME280;55690;51.566;19.198;2022-10-30T13:19:42;102036.73;;;18.14;100.00
68712;BME280;55690;51.566;19.198;2022-10-30T13:28:14;102033.97;;;18.14;100.00
68712;BME280;55690;51.566;19.198;2022-10-30T13:41:05;102011.31;;;17.90;100.00
68712;BME280;55690;51.566;19.198;2022-10-30T13:57:49;102009.46;;;17.79;100.00
68712;BME280;55690;51.566;19.198;2022-10-30T14:02:07;101999.34;;;17.80;100.00
68712;BME280;55690;51.566;19.198;2022-10-30T14:06:21;102006.84;;;17.78;100.00
68712;BME280;55690;51.566;19.198;2022-10-30T14:14:42;102009.01;;;17.74;100.00
68712;BME280;55690;51.566;19.198;2022-10-30T14:27:09;102000.63;;;17.65;100.00
68712;BME280;55690;51.566;19.198;2022-10-30T14:31:19;101993.28;;;17.54;100.00
68712;BME280;55690;51.566;19.198;2022-10-30T14:35:33;101992.17;;;17.45;100.00
68712;BME280;55690;51.566;19.198;2022-10-30T14:39:42;101998.55;;;17.35;100.00
68712;BME280;55690;51.566;19.198;2022-10-30T14:56:40;102000.58;;;16.88;100.00
68712;BME280;55690;51.566;19.198;2022-10-30T15:00:42;101997.45;;;16.81;100.00
68712;BME280;55690;51.566;19.198;2022-10-30T15:09:06;102010.21;;;16.58;100.00
68712;BME280;55690;51.566;19.198;2022-10-30T15:13:17;102010.81;;;16.51;100.00
68712;BME280;55690;51.566;19.198;2022-10-30T15:17:31;102011.80;;;16.39;100.00
68712;BME280;55690;51.566;19.198;2022-10-30T15:25:47;102018.29;;;16.03;100.00
68712;BME280;55690;51.566;19.198;2022-10-30T15:29:53;102004.41;;;15.93;100.00
68712;BME280;55690;51.566;19.198;2022-10-30T15:38:09;102006.25;;;15.69;100.00
68712;BME280;55690;51.566;19.198;2022-10-30T15:42:12;102007.70;;;15.61;100.00
68712;BME280;55690;51.566;19.198;2022-10-30T15:46:24;102003.36;;;15.46;100.00
68712;BME280;55690;51.566;19.198;2022-10-30T15:50:26;102000.00;;;15.30;100.00
68712;BME280;55690;51.566;19.198;2022-10-30T15:55:30;101997.05;;;15.20;100.00
68712;BME280;55690;51.566;19.198;2022-10-30T15:59:33;101993.93;;;15.14;100.00
68712;BME280;55690;51.566;19.198;2022-10-30T16:03:49;102001.05;;;15.04;100.00
68712;BME280;55690;51.566;19.198;2022-10-30T16:07:55;102001.27;;;14.88;100.00
68712;BME280;55690;51.566;19.198;2022-10-30T16:11:58;102006.31;;;14.81;100.00
68712;BME280;55690;51.566;19.198;2022-10-30T16:16:02;102003.80;;;14.78;100.00
68712;BME280;55690;51.566;19.198;2022-10-30T16:20:04;102006.44;;;14.67;100.00
68712;BME280;55690;51.566;19.198;2022-10-30T16:24:09;102007.73;;;14.49;100.00
68712;BME280;55690;51.566;19.198;2022-10-30T16:28:36;102009.53;;;14.36;100.00
68712;BME280;55690;51.566;19.198;2022-10-30T16:32:29;102006.25;;;14.30;100.00
68712;BME280;55690;51.566;19.198;2022-10-30T16:36:32;101996.75;;;14.23;100.00
68712;BME280;55690;51.566;19.198;2022-10-30T16:40:34;102012.02;;;14.13;100.00
68712;BME280;55690;51.566;19.198;2022-10-30T16:44:36;102000.08;;;14.02;100.00
68712;BME280;55690;51.566;19.198;2022-10-30T16:48:55;102003.68;;;14.02;100.00
68712;BME280;55690;51.566;19.198;2022-10-30T16:53:05;102013.83;;;14.00;100.00
68712;BME280;55690;51.566;19.198;2022-10-30T17:01:26;101987.33;;;13.75;100.00
68712;BME280;55690;51.566;19.198;2022-10-30T17:05:35;102013.35;;;13.81;100.00
68712;BME280;55690;51.566;19.198;2022-10-30T17:09:37;102016.59;;;13.73;100.00
68712;BME280;55690;51.566;19.198;2022-10-30T17:13:57;102015.14;;;13.68;100.00
68712;BME280;55690;51.566;19.198;2022-10-30T17:18:10;102020.73;;;13.52;100.00
68712;BME280;55690;51.566;19.198;2022-10-30T17:22:21;102026.05;;;13.41;100.00
68712;BME280;55690;51.566;19.198;2022-10-30T17:26:29;102029.17;;;13.35;100.00
68712;BME280;55690;51.566;19.198;2022-10-30T17:35:02;102025.77;;;13.31;100.00
68712;BME280;55690;51.566;19.198;2022-10-30T17:39:05;102023.53;;;13.23;100.00
68712;BME280;55690;51.566;19.198;2022-10-30T17:43:13;102028.30;;;13.20;100.00
68712;BME280;55690;51.566;19.198;2022-10-30T17:47:18;102029.38;;;13.17;100.00
68712;BME280;55690;51.566;19.198;2022-10-30T17:51:24;102025.68;;;13.18;100.00
68712;BME280;55690;51.566;19.198;2022-10-30T17:59:36;102021.85;;;13.07;100.00
68712;BME280;55690;51.566;19.198;2022-10-30T18:03:41;102024.31;;;12.97;100.00
68712;BME280;55690;51.566;19.198;2022-10-30T18:07:44;102027.33;;;12.92;100.00
68712;BME280;55690;51.566;19.198;2022-10-30T18:11:45;102028.39;;;12.90;100.00
68712;BME280;55690;51.566;19.198;2022-10-30T18:15:57;102024.48;;;12.80;100.00
68712;BME280;55690;51.566;19.198;2022-10-30T18:19:59;102021.27;;;12.73;100.00
68712;BME280;55690;51.566;19.198;2022-10-30T18:24:00;102018.92;;;12.67;100.00
68712;BME280;55690;51.566;19.198;2022-10-30T18:28:02;102026.69;;;12.59;100.00
68712;BME280;55690;51.566;19.198;2022-10-30T18:32:04;102017.95;;;12.54;100.00
68712;BME280;55690;51.566;19.198;2022-10-30T18:36:13;102030.02;;;12.50;100.00
68712;BME280;55690;51.566;19.198;2022-10-30T18:40:15;102026.01;;;12.41;100.00
68712;BME280;55690;51.566;19.198;2022-10-30T18:44:17;102017.51;;;12.31;100.00
68712;BME280;55690;51.566;19.198;2022-10-30T18:52:25;102014.55;;;12.20;100.00
68712;BME280;55690;51.566;19.198;2022-10-30T18:56:33;102008.41;;;12.17;100.00
68712;BME280;55690;51.566;19.198;2022-10-30T19:00:40;102002.49;;;12.10;100.00
68712;BME280;55690;51.566;19.198;2022-10-30T19:04:42;101997.04;;;12.10;100.00
68712;BME280;55690;51.566;19.198;2022-10-30T19:08:44;101994.41;;;12.09;100.00
68712;BME280;55690;51.566;19.198;2022-10-30T19:12:45;101998.66;;;11.98;100.00
68712;BME280;55690;51.566;19.198;2022-10-30T19:16:53;101998.05;;;11.93;100.00
68712;BME280;55690;51.566;19.198;2022-10-30T19:20:55;101990.25;;;11.87;100.00
68712;BME280;55690;51.566;19.198;2022-10-30T19:24:56;101987.88;;;11.81;100.00
68712;BME280;55690;51.566;19.198;2022-10-30T19:29:04;101991.81;;;11.76;100.00
68712;BME280;55690;51.566;19.198;2022-10-30T19:33:06;101995.66;;;11.72;100.00
68712;BME280;55690;51.566;19.198;2022-10-30T19:37:08;101996.85;;;11.68;100.00
68712;BME280;55690;51.566;19.198;2022-10-30T19:41:15;102008.70;;;11.66;100.00
68712;BME280;55690;51.566;19.198;2022-10-30T19:45:19;102006.07;;;11.65;100.00
68712;BME280;55690;51.566;19.198;2022-10-30T19:49:25;102006.25;;;11.62;100.00
68712;BME280;55690;51.566;19.198;2022-10-30T19:53:26;102006.25;;;11.62;100.00
68712;BME280;55690;51.566;19.198;2022-10-30T19:57:28;102007.48;;;11.56;100.00
68712;BME280;55690;51.566;19.198;2022-10-30T20:01:32;102001.95;;;11.58;100.00
68712;BME280;55690;51.566;19.198;2022-10-30T20:13:52;102011.23;;;11.38;100.00
68712;BME280;55690;51.566;19.198;2022-10-30T20:17:58;102012.64;;;11.29;100.00
68712;BME280;55690;51.566;19.198;2022-10-30T20:22:03;102011.97;;;11.26;100.00
68712;BME280;55690;51.566;19.198;2022-10-30T20:26:21;102016.61;;;11.24;100.00
68712;BME280;55690;51.566;19.198;2022-10-30T20:30:24;102020.30;;;11.23;100.00
68712;BME280;55690;51.566;19.198;2022-10-30T20:34:26;102015.11;;;11.18;100.00
68712;BME280;55690;51.566;19.198;2022-10-30T20:38:32;102016.08;;;11.17;100.00
68712;BME280;55690;51.566;19.198;2022-10-30T20:42:34;102019.93;;;11.13;100.00
68712;BME280;55690;51.566;19.198;2022-10-30T20:46:40;102012.56;;;11.15;100.00
68712;BME280;55690;51.566;19.198;2022-10-30T20:50:46;102015.53;;;11.11;100.00
68712;BME280;55690;51.566;19.198;2022-10-30T20:54:53;102017.63;;;11.06;100.00
68712;BME280;55690;51.566;19.198;2022-10-30T20:58:59;102015.16;;;11.01;100.00
68712;BME280;55690;51.566;19.198;2022-10-30T21:07:16;102011.49;;;11.02;100.00
68712;BME280;55690;51.566;19.198;2022-10-30T21:11:18;102018.30;;;10.93;100.00
68712;BME280;55690;51.566;19.198;2022-10-30T21:15:24;102010.56;;;10.86;100.00
68712;BME280;55690;51.566;19.198;2022-10-30T21:19:30;102012.69;;;10.81;100.00
68712;BME280;55690;51.566;19.198;2022-10-30T21:23:36;102017.25;;;10.80;100.00
68712;BME280;55690;51.566;19.198;2022-10-30T21:27:42;102005.34;;;10.83;100.00
68712;BME280;55690;51.566;19.198;2022-10-30T21:31:49;102008.47;;;10.75;100.00
68712;BME280;55690;51.566;19.198;2022-10-30T21:35:56;102017.90;;;10.68;100.00
68712;BME280;55690;51.566;19.198;2022-10-30T21:40:01;102013.46;;;10.50;100.00
68712;BME280;55690;51.566;19.198;2022-10-30T21:44:08;102012.50;;;10.51;100.00
68712;BME280;55690;51.566;19.198;2022-10-30T21:48:13;102017.37;;;10.44;100.00
68712;BME280;55690;51.566;19.198;2022-10-30T21:52:19;102010.70;;;10.34;100.00
68712;BME280;55690;51.566;19.198;2022-10-30T21:56:27;102009.25;;;10.27;100.00
68712;BME280;55690;51.566;19.198;2022-10-30T22:00:32;102017.56;;;10.24;100.00
68712;BME280;55690;51.566;19.198;2022-10-30T22:04:38;102001.44;;;10.21;100.00
68712;BME280;55690;51.566;19.198;2022-10-30T22:08:45;102009.34;;;10.25;100.00
68712;BME280;55690;51.566;19.198;2022-10-30T22:12:51;102011.09;;;10.26;100.00
68712;BME280;55690;51.566;19.198;2022-10-30T22:16:56;102013.02;;;10.24;100.00
68712;BME280;55690;51.566;19.198;2022-10-30T22:21:05;102007.86;;;10.18;100.00
68712;BME280;55690;51.566;19.198;2022-10-30T22:25:09;102003.39;;;10.17;100.00
68712;BME280;55690;51.566;19.198;2022-10-30T22:29:15;102017.84;;;10.18;100.00
68712;BME280;55690;51.566;19.198;2022-10-30T22:33:21;102007.86;;;10.18;100.00
68712;BME280;55690;51.566;19.198;2022-10-30T22:37:29;102002.67;;;10.14;100.00
68712;BME280;55690;51.566;19.198;2022-10-30T22:41:36;101999.08;;;10.13;100.00
68712;BME280;55690;51.566;19.198;2022-10-30T22:45:39;102008.19;;;10.12;100.00
68712;BME280;55690;51.566;19.198;2022-10-30T22:49:46;102009.06;;;10.13;100.00
68712;BME280;55690;51.566;19.198;2022-10-30T22:53:57;102007.23;;;10.13;100.00
68712;BME280;55690;51.566;19.198;2022-10-30T22:57:59;102003.63;;;10.13;100.00
68712;BME280;55690;51.566;19.198;2022-10-30T23:02:04;102012.88;;;10.09;100.00
68712;BME280;55690;51.566;19.198;2022-10-30T23:06:11;102013.92;;;10.06;100.00
68712;BME280;55690;51.566;19.198;2022-10-30T23:10:17;102015.11;;;10.00;100.00
68712;BME280;55690;51.566;19.198;2022-10-30T23:14:23;102009.61;;;10.02;100.00
68712;BME280;55690;51.566;19.198;2022-10-30T23:18:29;102004.83;;;10.07;100.00
68712;BME280;55690;51.566;19.198;2022-10-30T23:22:35;102002.66;;;9.96;100.00
68712;BME280;55690;51.566;19.198;2022-10-30T23:26:41;102012.02;;;9.91;100.00
68712;BME280;55690;51.566;19.198;2022-10-30T23:30:48;102008.50;;;9.89;100.00
68712;BME280;55690;51.566;19.198;2022-10-30T23:34:54;102013.36;;;9.82;100.00
68712;BME280;55690;51.566;19.198;2022-10-30T23:39:02;102008.77;;;9.65;100.00
68712;BME280;55690;51.566;19.198;2022-10-30T23:43:06;102022.41;;;9.64;100.00
68712;BME280;55690;51.566;19.198;2022-10-30T23:47:12;102006.21;;;9.62;100.00
68712;BME280;55690;51.566;19.198;2022-10-30T23:51:19;102012.36;;;9.66;100.00
68712;BME280;55690;51.566;19.198;2022-10-30T23:55:24;102012.59;;;9.61;100.00
68712;BME280;55690;51.566;19.198;2022-10-30T23:59:31;102013.07;;;9.52;100.00
